Cragsmoor, New York
Current Conditions -  °F | °C
As of 12:54 AM on Wednesday 22 Oct 2014 (Local Time) from KMGJ Reporting Station
Overcast Overcast  
Wind Chill: 52°   Ceiling: 600
Heat Index: 52°   Visibility: 10mi
Dew Point: 50°   Wind: 12mph
Humidity: 93%   Direction: 20°NNE
Pressure: 29.94"   Gusts: NA
Location:  41.67°N, 74.39°W
Report Text: KMGJ 220454Z AUTO 02010KT 10SM OVC006 11/10 A2994 RMK AO2 RAE21 SLP138 P0001 T01110100 401280067 TSNO
Loading
Personal Weather Stations






























Interactive Weather Map
Tropical Storm Tracking
New forecast layout! Learn more

10-Day Weather Forecast

Advertisements
Track Severe Weather on mobile